Terminal Aerodrome Forecast
Issued by NWS

Home | Current Version | Previous Version | Text Only | Print | Product List | Glossary On
Versions: 1 2 3 4 5 6 7 8 9 10 11 12
000
FTUS45 KSLC 112331
TAFEVW
TAF
KEVW 112331Z 1200/1224 31005KT P6SM SKC
     FM120300 22005KT P6SM SKC
     FM122000 25010KT P6SM SKC=

USA.gov is the U.S. government's official web portal to all federal, state and local government web resources and services.